Time;durP1;ratioP1;P1;durP2;ratioP2;P2;SDS_P1;SDS_P2;PMS_P1;PMS_P2;Temp;Humidity;BMP_temperature;BMP_pressure;BME280_temperature;BME280_humidity;BME280_pressure;Samples;Min_cycle;Max_cycle;Signal;HPM_P1;HPM_P2
2022/12/15 00:40:27;;;;;;;0.80;0.68;;;26.70;40.00;;;;;;5045269;28;20031;-67
2022/12/15 00:42:54;;;;;;;1.85;0.40;;;27.30;41.70;;;;;;5052117;28;20492;-68
2022/12/15 00:46:53;;;;;;;1.02;0.25;;;27.70;39.00;;;;;;5044328;28;20049;-68
2022/12/15 00:48:08;;;;;;;1.15;0.52;;;27.40;41.10;;;;;;5039909;28;20381;-67
2022/12/15 00:50:52;;;;;;;1.80;0.13;;;27.60;40.60;;;;;;5041795;28;20036;-69
2022/12/15 01:21:02;;;;;;;0.38;0.20;;;28.70;39.80;;;;;;5055316;28;20048;-71
2022/12/15 01:23:29;;;;;;;3.22;0.57;;;28.00;39.00;;;;;;5040467;28;20107;-70
2022/12/15 01:25:57;;;;;;;2.13;0.30;;;27.60;38.20;;;;;;5033183;28;20110;-70
2022/12/15 01:28:25;;;;;;;2.90;0.30;;;27.50;40.80;;;;;;5060343;28;20466;-70
2022/12/15 01:30:52;;;;;;;3.00;0.82;;;27.40;38.30;;;;;;5053212;28;20089;-70
2022/12/15 01:33:20;;;;;;;2.78;0.30;;;27.30;40.20;;;;;;5045984;28;20026;-69
2022/12/15 01:36:01;;;;;;;2.97;0.30;;;27.40;40.30;;;;;;5042768;28;20090;-68
2022/12/15 01:38:29;;;;;;;4.05;0.40;;;28.10;39.70;;;;;;5040698;28;20029;-69
2022/12/15 01:41:02;;;;;;;1.10;0.25;;;28.50;38.30;;;;;;5043882;28;20029;-69
2022/12/15 01:43:41;;;;;;;0.50;0.30;;;28.00;38.70;;;;;;5043887;28;20068;-70
2022/12/15 01:46:14;;;;;;;1.98;0.15;;;28.30;38.60;;;;;;5054265;28;20107;-68
2022/12/15 01:49:05;;;;;;;1.67;0.20;;;28.70;37.30;;;;;;5054520;28;20036;-71
2022/12/15 01:51:38;;;;;;;0.63;0.30;;;28.30;37.50;;;;;;5059569;28;20056;-71
2022/12/15 01:54:08;;;;;;;0.85;0.28;;;27.80;37.20;;;;;;5061389;28;20043;-70
2022/12/15 01:56:40;;;;;;;4.30;0.32;;;27.90;39.80;;;;;;5051841;28;20029;-69
2022/12/15 01:59:12;;;;;;;1.48;0.30;;;28.60;40.10;;;;;;5051873;28;20126;-69
2022/12/15 02:01:39;;;;;;;1.10;0.40;;;29.00;39.00;;;;;;5042489;28;20029;-68
2022/12/15 02:04:07;;;;;;;2.10;0.22;;;29.20;40.30;;;;;;5047955;28;20020;-69
2022/12/15 02:06:35;;;;;;;0.52;0.20;;;29.90;40.50;;;;;;5045445;28;20021;-69
2022/12/15 02:09:03;;;;;;;1.10;0.30;;;30.00;38.40;;;;;;5033274;28;20467;-70
2022/12/15 02:11:39;;;;;;;1.40;0.20;;;30.20;38.10;;;;;;5036691;28;20445;-71
2022/12/15 02:14:08;;;;;;;1.80;0.45;;;30.10;36.90;;;;;;5056525;28;20023;-67
2022/12/15 02:16:36;;;;;;;1.98;0.38;;;29.20;37.00;;;;;;5049846;28;20021;-69
2022/12/15 02:19:39;;;;;;;0.90;0.20;;;29.20;39.50;;;;;;5036797;28;20025;-69
2022/12/15 02:22:25;;;;;;;6.68;0.43;;;29.50;37.90;;;;;;5059736;28;20020;-71
2022/12/15 02:25:32;;;;;;;0.77;0.22;;;29.80;39.30;;;;;;5063755;28;20100;-70
2022/12/15 02:28:12;;;;;;;32.20;3.28;;;29.60;38.60;;;;;;5041694;28;20067;-70
2022/12/15 02:34:08;;;;;;;1.65;0.20;;;28.90;36.40;;;;;;5045637;28;20163;-70
2022/12/15 02:36:41;;;;;;;1.02;0.17;;;29.10;36.70;;;;;;5049604;28;20112;-71
2022/12/15 02:39:12;;;;;;;1.45;0.22;;;28.60;37.40;;;;;;5054976;28;20130;-71
2022/12/15 02:41:41;;;;;;;0.63;0.20;;;29.00;38.00;;;;;;5057952;28;20028;-72
2022/12/15 02:44:21;;;;;;;1.27;0.38;;;28.80;36.40;;;;;;5054680;28;20044;-71
2022/12/15 02:47:07;;;;;;;0.52;0.20;;;28.50;38.10;;;;;;5051777;28;20336;-69
2022/12/15 02:49:52;;;;;;;0.90;0.20;;;28.60;38.40;;;;;;5044847;28;20041;-69
2022/12/15 02:52:47;;;;;;;0.10;0.10;;;29.10;36.20;;;;;;5042840;28;20047;-71
2022/12/15 02:55:20;;;;;;;4.93;0.25;;;29.40;38.10;;;;;;5051802;28;20032;-70
2022/12/15 02:58:02;;;;;;;1.30;0.20;;;29.50;35.30;;;;;;5056697;28;20385;-70
2022/12/15 03:00:33;;;;;;;0.40;0.17;;;29.80;35.40;;;;;;5052208;28;20029;-69
2022/12/15 03:03:00;;;;;;;2.55;0.30;;;29.30;36.70;;;;;;5050998;28;20017;-71
2022/12/15 03:05:31;;;;;;;1.27;0.28;;;28.90;35.60;;;;;;5055292;28;20025;-70
2022/12/15 03:07:58;;;;;;;0.65;0.30;;;29.70;39.50;;;;;;5031800;28;20062;-71
2022/12/15 03:10:26;;;;;;;9.45;0.60;;;29.80;38.40;;;;;;5045436;28;20025;-71
2022/12/15 03:12:53;;;;;;;6.80;0.70;;;30.00;36.70;;;;;;5043009;28;20028;-72
2022/12/15 03:15:21;;;;;;;2.20;0.25;;;30.10;38.20;;;;;;5058797;28;20041;-70
2022/12/15 03:17:48;;;;;;;2.08;0.22;;;29.80;37.60;;;;;;5050425;28;20025;-69
2022/12/15 03:20:16;;;;;;;3.53;0.40;;;29.50;36.40;;;;;;5055117;28;20099;-69
2022/12/15 03:22:43;;;;;;;2.13;0.25;;;29.20;36.40;;;;;;5062588;28;20029;-71
2022/12/15 03:25:10;;;;;;;1.55;0.10;;;29.20;36.70;;;;;;5056065;28;20082;-70
2022/12/15 03:27:38;;;;;;;2.30;0.30;;;29.00;36.10;;;;;;5069784;28;20031;-75
2022/12/15 03:30:06;;;;;;;3.03;0.40;;;28.70;35.90;;;;;;5055101;28;20540;-71
2022/12/15 03:32:33;;;;;;;2.35;0.35;;;28.50;36.50;;;;;;5064554;28;20408;-71
2022/12/15 03:35:00;;;;;;;2.92;0.20;;;28.40;37.50;;;;;;5051931;28;20370;-72
2022/12/15 03:37:28;;;;;;;0.32;0.25;;;28.20;36.70;;;;;;5054354;28;20075;-73
2022/12/15 03:39:55;;;;;;;4.15;0.30;;;27.90;35.90;;;;;;5050495;28;20037;-69
2022/12/15 03:45:08;;;;;;;0.75;0.30;;;28.20;35.90;;;;;;5042644;28;20055;-72
2022/12/15 03:47:39;;;;;;;1.38;0.30;;;28.00;35.90;;;;;;5039228;28;20032;-71
2022/12/15 03:50:08;;;;;;;1.13;0.20;;;27.70;35.80;;;;;;5057337;28;20030;-69
2022/12/15 03:52:35;;;;;;;0.93;0.22;;;28.10;37.60;;;;;;5049297;28;20033;-70
2022/12/15 03:55:04;;;;;;;1.02;0.28;;;28.10;36.30;;;;;;5062258;28;20216;-70
2022/12/15 03:57:31;;;;;;;2.08;0.22;;;28.60;36.40;;;;;;5046831;28;20398;-70
2022/12/15 03:59:58;;;;;;;1.58;0.30;;;28.20;35.40;;;;;;5066224;28;20024;-70
2022/12/15 04:02:26;;;;;;;1.08;0.30;;;27.60;36.10;;;;;;5051630;28;20017;-71
2022/12/15 04:04:53;;;;;;;0.90;0.22;;;27.10;36.20;;;;;;5057857;28;20024;-71
2022/12/15 04:07:20;;;;;;;3.40;0.30;;;26.80;36.70;;;;;;5066531;28;20032;-71
2022/12/15 04:09:47;;;;;;;0.68;0.28;;;26.80;37.40;;;;;;5050233;28;20466;-71
2022/12/15 04:12:14;;;;;;;0.38;0.30;;;26.80;37.10;;;;;;5041276;28;20029;-71
2022/12/15 04:14:41;;;;;;;0.70;0.30;;;26.50;38.70;;;;;;5050520;28;20032;-71
2022/12/15 04:17:10;;;;;;;4.70;0.40;;;26.60;38.50;;;;;;5049762;28;20032;-71
2022/12/15 04:22:23;;;;;;;0.80;0.10;;;26.90;38.30;;;;;;5044649;28;20063;-71
2022/12/15 05:33:59;;;;;;;5.53;1.65;;;23.90;51.30;;;;;;5041257;28;20079;-71
2022/12/15 05:36:26;;;;;;;3.53;1.02;;;23.70;50.60;;;;;;5051690;28;20012;-70
2022/12/15 05:38:54;;;;;;;6.32;1.35;;;23.60;51.50;;;;;;5054918;28;20422;-70
2022/12/15 05:41:22;;;;;;;6.13;1.20;;;23.50;51.50;;;;;;5055479;28;20016;-70
2022/12/15 05:43:49;;;;;;;8.48;2.05;;;23.40;52.00;;;;;;5058443;28;20048;-70
2022/12/15 05:46:16;;;;;;;5.55;1.42;;;23.20;53.20;;;;;;5041641;28;20012;-71
2022/12/15 05:48:43;;;;;;;7.57;1.45;;;23.30;53.70;;;;;;5059524;28;20032;-75
2022/12/15 05:51:12;;;;;;;3.28;1.52;;;23.10;53.70;;;;;;5041635;28;20028;-69
2022/12/15 05:53:40;;;;;;;10.57;1.67;;;23.00;53.60;;;;;;5039834;28;20029;-69
2022/12/15 05:56:10;;;;;;;8.30;1.40;;;23.00;53.70;;;;;;5051849;28;20031;-69
2022/12/15 05:58:39;;;;;;;10.18;2.05;;;22.90;53.30;;;;;;5060206;28;20029;-69
2022/12/15 06:01:08;;;;;;;7.20;1.55;;;22.90;53.80;;;;;;5047800;28;20028;-71
2022/12/15 06:03:35;;;;;;;5.50;1.38;;;23.10;54.10;;;;;;5041745;28;20025;-69
2022/12/15 06:06:03;;;;;;;9.23;1.38;;;23.40;53.20;;;;;;5040693;28;20094;-73
2022/12/15 06:08:33;;;;;;;3.42;0.98;;;23.70;51.60;;;;;;5039252;28;20393;-71
2022/12/15 06:11:00;;;;;;;3.97;1.10;;;23.90;51.10;;;;;;5044215;28;20477;-67
2022/12/15 06:13:33;;;;;;;6.90;1.45;;;23.60;51.60;;;;;;5036615;28;20037;-67
2022/12/15 06:16:03;;;;;;;9.05;2.13;;;23.40;52.00;;;;;;5053520;28;20017;-67
2022/12/15 06:18:37;;;;;;;4.97;1.17;;;23.80;51.60;;;;;;5052015;28;20060;-67
2022/12/15 06:21:16;;;;;;;6.27;1.13;;;24.00;51.00;;;;;;5051797;28;20030;-69
2022/12/15 06:23:44;;;;;;;7.55;1.52;;;23.50;51.50;;;;;;5043375;28;20031;-67
2022/12/15 06:26:19;;;;;;;8.85;1.88;;;23.10;52.40;;;;;;5047058;28;20493;-67
2022/12/15 06:28:47;;;;;;;6.32;1.77;;;22.40;53.80;;;;;;5046750;28;20044;-72
2022/12/15 06:31:16;;;;;;;11.70;1.42;;;21.90;55.60;;;;;;5044679;28;20117;-72
2022/12/15 06:33:44;;;;;;;5.80;1.42;;;21.70;56.20;;;;;;5043588;28;20032;-70
2022/12/15 06:36:14;;;;;;;8.55;1.77;;;21.80;56.10;;;;;;5045049;28;20124;-67
2022/12/15 06:38:42;;;;;;;7.65;1.20;;;22.00;55.90;;;;;;5043953;28;20148;-74
2022/12/15 06:41:11;;;;;;;6.15;1.27;;;22.20;55.70;;;;;;5043870;28;20436;-74
2022/12/15 06:43:38;;;;;;;6.60;1.00;;;22.60;54.80;;;;;;5040469;28;20033;-75
2022/12/15 06:46:06;;;;;;;6.45;1.90;;;22.50;55.80;;;;;;5044300;28;20412;-71
2022/12/15 06:48:33;;;;;;;4.70;1.20;;;23.00;54.80;;;;;;5050180;28;20032;-73
2022/12/15 06:51:07;;;;;;;4.97;1.10;;;23.00;54.40;;;;;;5044713;28;20525;-74
2022/12/15 06:53:47;;;;;;;9.30;2.03;;;22.70;55.50;;;;;;5037396;28;20033;-71
2022/12/15 06:56:27;;;;;;;6.45;1.17;;;22.60;55.20;;;;;;5040435;28;20035;-72
2022/12/15 06:58:55;;;;;;;10.65;1.40;;;23.00;54.50;;;;;;5032414;28;20041;-73
2022/12/15 07:01:23;;;;;;;8.20;2.15;;;23.10;54.20;;;;;;5034492;28;20044;-73
2022/12/15 07:03:52;;;;;;;4.35;1.30;;;23.40;54.10;;;;;;5045914;28;20059;-72
2022/12/15 07:06:19;;;;;;;8.85;1.90;;;23.40;54.10;;;;;;5039968;28;20036;-75
2022/12/15 07:08:55;;;;;;;7.53;1.45;;;23.30;53.70;;;;;;5045580;28;20041;-73
2022/12/15 07:11:23;;;;;;;9.85;1.52;;;23.10;54.10;;;;;;5054911;28;20037;-73
2022/12/15 07:13:51;;;;;;;9.02;1.70;;;23.10;54.40;;;;;;5038126;28;20025;-69
2022/12/15 07:16:20;;;;;;;9.55;1.58;;;23.10;54.20;;;;;;5047972;28;20032;-73
2022/12/15 07:18:47;;;;;;;8.35;1.25;;;23.00;54.20;;;;;;5048885;28;20025;-71
2022/12/15 07:21:15;;;;;;;5.70;1.73;;;22.60;54.90;;;;;;5042523;28;20025;-71
2022/12/15 07:23:42;;;;;;;4.32;1.38;;;22.70;54.50;;;;;;5046147;28;20108;-71
2022/12/15 07:26:10;;;;;;;6.72;0.90;;;22.80;54.70;;;;;;5039057;28;20021;-73
2022/12/15 07:28:38;;;;;;;4.13;1.27;;;22.70;54.40;;;;;;5040365;28;20126;-75
2022/12/15 07:31:07;;;;;;;6.90;1.50;;;22.40;54.10;;;;;;5042050;28;20023;-73
2022/12/15 07:33:36;;;;;;;6.20;1.33;;;22.20;55.60;;;;;;5038444;28;20029;-72
2022/12/15 07:36:04;;;;;;;6.97;1.05;;;22.00;56.20;;;;;;5041212;28;20511;-73
2022/12/15 07:38:32;;;;;;;10.02;1.95;;;21.70;56.70;;;;;;5043228;28;20029;-73
2022/12/15 07:41:05;;;;;;;7.57;1.48;;;21.40;58.00;;;;;;5042959;28;20018;-74
2022/12/15 07:43:32;;;;;;;10.05;1.88;;;21.00;59.30;;;;;;5036756;28;20037;-72
2022/12/15 07:46:00;;;;;;;12.45;1.77;;;20.70;60.90;;;;;;5040901;28;20032;-70
2022/12/15 07:48:28;;;;;;;10.85;2.00;;;20.40;62.10;;;;;;5041923;28;20068;-72
2022/12/15 07:50:58;;;;;;;15.48;2.10;;;20.10;63.00;;;;;;5040665;28;20013;-72
2022/12/15 07:53:27;;;;;;;12.52;2.08;;;19.80;64.20;;;;;;5042866;28;20080;-72
2022/12/15 07:55:58;;;;;;;12.13;1.95;;;19.60;65.90;;;;;;5038885;28;20033;-72
2022/12/15 07:58:28;;;;;;;14.30;2.80;;;19.40;67.00;;;;;;5044292;28;20057;-70
2022/12/15 08:01:04;;;;;;;8.77;1.70;;;19.20;68.00;;;;;;5037114;28;20018;-72
2022/12/15 08:03:31;;;;;;;11.25;2.67;;;19.10;69.20;;;;;;5041351;28;20033;-72
2022/12/15 08:06:02;;;;;;;11.70;1.63;;;19.00;70.10;;;;;;5042169;28;20052;-70
2022/12/15 08:08:29;;;;;;;8.80;1.95;;;18.90;70.90;;;;;;5042366;28;20041;-73
2022/12/15 08:10:56;;;;;;;14.68;3.00;;;18.80;71.40;;;;;;5051852;28;20028;-71
2022/12/15 08:13:24;;;;;;;13.32;2.15;;;18.80;71.50;;;;;;5050343;28;20017;-69
2022/12/15 08:15:54;;;;;;;8.15;1.50;;;18.70;71.70;;;;;;5042815;28;20101;-68
2022/12/15 08:18:22;;;;;;;13.45;2.75;;;18.60;72.20;;;;;;5039431;28;20029;-70
2022/12/15 08:20:49;;;;;;;9.73;1.88;;;18.50;72.80;;;;;;5046706;28;20083;-70
2022/12/15 08:23:17;;;;;;;10.50;1.77;;;18.50;73.30;;;;;;5040592;28;20382;-73
2022/12/15 08:25:44;;;;;;;14.50;2.00;;;18.40;73.80;;;;;;5039479;28;20075;-73
2022/12/15 08:28:11;;;;;;;13.50;1.90;;;18.30;74.20;;;;;;5033803;28;20678;-72
2022/12/15 08:30:39;;;;;;;11.63;2.28;;;18.30;75.00;;;;;;5040218;28;20029;-70
2022/12/15 08:33:06;;;;;;;12.52;2.47;;;18.20;75.90;;;;;;5036298;28;20630;-73
2022/12/15 08:35:33;;;;;;;10.65;1.50;;;18.20;76.50;;;;;;5038280;28;20039;-74
2022/12/15 08:38:01;;;;;;;16.40;1.92;;;18.10;76.80;;;;;;5042129;28;20021;-74
2022/12/15 08:40:28;;;;;;;16.10;4.10;;;18.10;77.60;;;;;;5036961;28;20394;-71
2022/12/15 08:42:55;;;;;;;9.90;2.65;;;18.00;78.30;;;;;;5048050;28;20036;-73
2022/12/15 08:45:23;;;;;;;13.93;2.33;;;17.90;79.10;;;;;;5037173;28;20052;-70
2022/12/15 08:47:50;;;;;;;9.35;2.60;;;17.80;79.50;;;;;;5041910;28;20036;-66
2022/12/15 08:50:17;;;;;;;21.77;2.90;;;17.70;80.00;;;;;;5040414;28;20056;-66
2022/12/15 08:52:45;;;;;;;10.48;2.00;;;17.60;80.90;;;;;;5045851;28;21512;-66
2022/12/15 08:55:12;;;;;;;14.73;2.67;;;17.60;81.70;;;;;;5040504;28;20065;-65
2022/12/15 08:57:39;;;;;;;10.98;2.10;;;17.60;82.50;;;;;;5039855;28;20037;-65
2022/12/15 09:00:07;;;;;;;10.32;2.28;;;17.50;83.00;;;;;;5036467;28;20386;-65
2022/12/15 09:02:34;;;;;;;17.15;2.78;;;17.40;83.70;;;;;;5038989;28;20619;-65
2022/12/15 09:05:02;;;;;;;15.40;2.25;;;17.40;84.50;;;;;;5034792;28;20025;-61
2022/12/15 09:07:29;;;;;;;16.42;3.08;;;17.30;84.90;;;;;;5036036;28;20026;-69
2022/12/15 09:09:56;;;;;;;15.95;3.47;;;17.20;85.60;;;;;;5033916;28;20022;-64
2022/12/15 09:12:23;;;;;;;14.63;2.42;;;17.20;86.40;;;;;;5043382;28;20409;-66
2022/12/15 09:14:51;;;;;;;6.95;1.75;;;17.10;87.20;;;;;;5040223;28;20040;-66
2022/12/15 09:17:18;;;;;;;14.10;2.90;;;17.00;88.10;;;;;;5034002;28;20083;-67
2022/12/15 09:19:45;;;;;;;18.10;2.15;;;17.00;89.10;;;;;;5033995;28;20058;-69
2022/12/15 09:22:12;;;;;;;14.65;2.67;;;16.90;89.60;;;;;;5037203;28;20025;-69
2022/12/15 09:24:39;;;;;;;21.38;2.47;;;16.80;90.20;;;;;;5037837;28;20080;-72
2022/12/15 09:27:07;;;;;;;17.45;2.70;;;16.80;90.50;;;;;;5035386;28;20021;-72
2022/12/15 09:29:34;;;;;;;18.15;2.00;;;16.70;90.70;;;;;;5039951;28;20315;-72
2022/12/15 09:32:02;;;;;;;15.13;2.88;;;16.70;91.00;;;;;;5041186;28;20401;-71
2022/12/15 09:34:29;;;;;;;12.82;2.58;;;16.70;91.30;;;;;;5048422;28;20060;-75
2022/12/15 09:36:57;;;;;;;15.07;2.22;;;16.70;91.60;;;;;;5044181;28;20026;-68
2022/12/15 09:39:24;;;;;;;13.27;2.63;;;16.60;92.00;;;;;;5045964;28;20020;-65
2022/12/15 09:41:59;;;;;;;12.07;1.98;;;16.50;92.30;;;;;;5043175;28;20024;-66
2022/12/15 09:44:29;;;;;;;17.63;2.85;;;16.50;92.70;;;;;;5045536;28;20041;-73
2022/12/15 09:47:14;;;;;;;13.70;3.78;;;16.40;92.80;;;;;;5044038;28;20029;-69
2022/12/15 09:49:59;;;;;;;14.95;2.45;;;16.40;93.00;;;;;;5050660;28;20185;-65
2022/12/15 09:52:32;;;;;;;20.00;2.92;;;16.40;93.20;;;;;;5045591;28;20900;-66
2022/12/15 09:55:00;;;;;;;19.77;2.53;;;16.40;93.50;;;;;;5045545;28;20056;-64
2022/12/15 09:57:27;;;;;;;14.82;1.95;;;16.40;93.60;;;;;;5042604;28;20029;-64
2022/12/15 10:00:11;;;;;;;12.27;2.92;;;16.50;93.60;;;;;;5050191;28;20029;-70
2022/12/15 10:03:18;;;;;;;22.75;2.88;;;16.40;93.40;;;;;;5047237;28;20021;-69
2022/12/15 10:05:58;;;;;;;15.13;2.70;;;16.50;93.50;;;;;;5058672;28;20021;-70
2022/12/15 10:08:30;;;;;;;13.70;3.38;;;16.50;93.50;;;;;;5050901;28;20037;-71
2022/12/15 10:11:26;;;;;;;19.55;2.85;;;16.50;93.40;;;;;;5037191;28;20031;-69
2022/12/15 10:14:39;;;;;;;15.95;3.05;;;16.50;93.50;;;;;;5052538;28;20041;-68
2022/12/15 10:17:23;;;;;;;19.15;2.35;;;16.50;93.70;;;;;;5080655;28;20028;-68
2022/12/15 10:20:28;;;;;;;14.23;3.72;;;16.50;93.60;;;;;;5073921;28;20073;-72
2022/12/15 10:23:01;;;;;;;14.93;2.65;;;16.50;93.80;;;;;;4993725;28;20143;-70
2022/12/15 10:25:30;;;;;;;15.85;2.83;;;16.50;93.70;;;;;;5035267;28;20034;-66
2022/12/15 10:28:24;;;;;;;17.23;2.72;;;16.50;93.70;;;;;;5042566;28;20176;-69
2022/12/15 10:31:00;;;;;;;14.77;2.92;;;16.40;93.70;;;;;;5048548;28;20035;-68
2022/12/15 10:33:35;;;;;;;18.85;2.50;;;16.40;93.60;;;;;;5052399;28;20020;-68
2022/12/15 10:36:12;;;;;;;21.20;3.53;;;16.40;93.50;;;;;;5057068;28;20474;-69
2022/12/15 10:38:44;;;;;;;19.25;2.53;;;16.40;93.40;;;;;;5042060;28;20033;-66
2022/12/15 10:41:20;;;;;;;14.25;1.90;;;16.40;93.70;;;;;;5049172;28;20424;-67
2022/12/15 10:43:50;;;;;;;15.73;2.58;;;16.40;93.50;;;;;;5046177;28;20385;-68
2022/12/15 10:46:25;;;;;;;15.05;3.78;;;16.50;93.40;;;;;;5040222;28;20039;-68
2022/12/15 10:49:16;;;;;;;11.32;2.90;;;16.50;93.30;;;;;;5045570;28;20033;-67
2022/12/15 10:51:48;;;;;;;18.55;3.33;;;16.50;93.50;;;;;;5051828;28;20025;-68
2022/12/15 10:54:17;;;;;;;20.73;2.38;;;16.60;93.30;;;;;;5035409;28;20055;-66
2022/12/15 10:56:56;;;;;;;16.77;2.58;;;16.50;93.00;;;;;;5039646;28;20021;-66
2022/12/15 10:59:30;;;;;;;16.17;3.20;;;16.50;92.60;;;;;;5058900;28;20032;-65
2022/12/15 11:02:20;;;;;;;8.80;1.92;;;16.50;92.50;;;;;;5054665;28;20021;-65
2022/12/15 11:05:15;;;;;;;11.15;2.35;;;16.50;92.40;;;;;;5054742;28;20026;-66
2022/12/15 11:07:42;;;;;;;11.02;2.20;;;16.50;92.00;;;;;;5060080;28;20504;-66
2022/12/15 11:10:15;;;;;;;14.60;2.33;;;16.40;92.10;;;;;;5043515;28;20040;-66
2022/12/15 11:12:53;;;;;;;15.15;1.70;;;16.40;92.20;;;;;;5039953;28;20029;-65
2022/12/15 11:15:23;;;;;;;13.38;2.63;;;16.30;92.30;;;;;;5052348;28;20021;-67
2022/12/15 11:17:59;;;;;;;10.63;3.35;;;16.30;92.40;;;;;;5042864;28;20034;-66
2022/12/15 11:20:35;;;;;;;16.38;2.28;;;16.30;92.50;;;;;;5056604;28;20039;-66
2022/12/15 11:23:25;;;;;;;12.55;2.25;;;16.30;92.20;;;;;;5063561;28;20024;-65
2022/12/15 11:26:06;;;;;;;14.50;2.00;;;16.30;92.40;;;;;;5059367;28;20040;-67
2022/12/15 11:28:45;;;;;;;11.82;2.70;;;16.20;92.30;;;;;;5050941;28;20206;-70
2022/12/15 11:31:20;;;;;;;11.40;1.92;;;16.30;92.40;;;;;;5045969;28;20029;-67
2022/12/15 11:33:47;;;;;;;14.15;2.42;;;16.20;92.30;;;;;;5041666;28;20029;-65
2022/12/15 11:36:41;;;;;;;27.13;3.78;;;16.20;91.90;;;;;;5046342;28;20493;-66
2022/12/15 11:39:26;;;;;;;15.40;1.70;;;16.20;91.90;;;;;;5039630;28;20098;-64
2022/12/15 11:42:24;;;;;;;9.82;2.08;;;16.20;91.80;;;;;;5065005;28;20108;-65
2022/12/15 11:44:51;;;;;;;12.60;2.42;;;16.10;91.90;;;;;;5051561;28;20401;-67
2022/12/15 11:47:26;;;;;;;13.85;2.25;;;16.10;91.90;;;;;;5056392;28;20504;-65
2022/12/15 11:50:02;;;;;;;8.00;1.73;;;16.10;91.80;;;;;;5053622;28;20068;-67
2022/12/15 11:52:49;;;;;;;12.23;2.35;;;16.10;92.20;;;;;;5063558;28;20025;-68
2022/12/15 11:55:42;;;;;;;12.20;1.52;;;16.10;91.90;;;;;;5037748;28;20037;-67
2022/12/15 11:58:28;;;;;;;10.63;2.05;;;16.00;92.00;;;;;;5040098;28;20032;-67
2022/12/15 12:01:04;;;;;;;14.45;2.08;;;16.00;92.00;;;;;;5040118;28;20029;-71
2022/12/15 12:03:37;;;;;;;10.05;2.03;;;16.00;91.70;;;;;;5037910;28;20102;-71
2022/12/15 12:06:13;;;;;;;15.15;2.28;;;16.00;91.40;;;;;;5031130;28;20035;-71
2022/12/15 12:09:02;;;;;;;12.30;2.05;;;16.00;91.40;;;;;;5031122;28;20036;-71
2022/12/15 12:12:15;;;;;;;14.07;2.40;;;15.80;94.30;;;;;;5048481;28;20512;-71
2022/12/15 12:15:13;;;;;;;14.35;2.92;;;15.50;95.40;;;;;;5048462;28;20033;-69
2022/12/15 12:17:57;;;;;;;6.78;2.22;;;15.30;95.40;;;;;;5037127;28;20017;-68
2022/12/15 12:20:39;;;;;;;11.32;1.70;;;15.10;96.30;;;;;;5049906;28;20030;-72
2022/12/15 12:23:27;;;;;;;10.68;2.05;;;15.00;96.00;;;;;;5039088;28;20418;-72
2022/12/15 12:26:04;;;;;;;10.15;1.75;;;15.00;97.40;;;;;;5048703;28;20034;-71
2022/12/15 12:28:53;;;;;;;6.50;1.65;;;14.90;96.40;;;;;;5040463;28;20033;-71
2022/12/15 12:31:56;;;;;;;10.63;1.70;;;14.90;96.60;;;;;;5038379;28;20394;-70
2022/12/15 12:35:21;;;;;;;8.85;1.70;;;14.90;96.10;;;;;;5039493;28;20513;-71
2022/12/15 12:37:53;;;;;;;18.02;2.85;;;15.00;96.00;;;;;;5015490;28;20041;-71
2022/12/15 12:40:50;;;;;;;18.33;2.22;;;15.00;95.90;;;;;;5031219;28;20034;-71
2022/12/15 12:43:39;;;;;;;17.20;2.20;;;15.00;95.40;;;;;;5032949;28;20498;-70
2022/12/15 12:46:14;;;;;;;10.23;2.00;;;15.10;95.20;;;;;;5031397;28;20079;-70
2022/12/15 12:49:23;;;;;;;16.13;2.75;;;15.10;94.90;;;;;;5033764;28;20040;-71
2022/12/15 12:51:59;;;;;;;11.95;2.05;;;15.10;95.20;;;;;;5034907;28;20048;-71
2022/12/15 12:54:59;;;;;;;14.35;1.88;;;15.10;95.40;;;;;;5044867;28;20557;-71
2022/12/15 12:57:41;;;;;;;18.20;2.25;;;15.10;95.80;;;;;;5038551;28;20023;-71
2022/12/15 13:00:08;;;;;;;14.13;2.13;;;15.00;96.40;;;;;;5038613;28;20122;-71
2022/12/15 13:02:36;;;;;;;16.73;2.78;;;15.00;95.80;;;;;;5032889;28;20021;-71
2022/12/15 13:05:24;;;;;;;15.43;2.92;;;14.90;96.10;;;;;;5033950;28;20037;-72
2022/12/15 13:08:04;;;;;;;11.18;2.10;;;15.00;95.60;;;;;;5037184;28;20498;-72
2022/12/15 13:10:36;;;;;;;6.90;1.23;;;14.90;95.70;;;;;;5043393;28;20037;-72
2022/12/15 13:13:16;;;;;;;16.02;1.85;;;14.90;95.50;;;;;;5031404;28;20383;-71
2022/12/15 13:15:48;;;;;;;8.82;2.03;;;15.00;95.20;;;;;;5036364;28;20557;-72
2022/12/15 13:18:22;;;;;;;8.65;1.60;;;14.90;95.00;;;;;;5030763;28;20026;-72
2022/12/15 13:20:54;;;;;;;11.73;2.20;;;14.90;95.50;;;;;;5044974;28;20025;-71
2022/12/15 13:23:21;;;;;;;6.28;1.50;;;14.80;95.10;;;;;;5034123;28;20421;-72
2022/12/15 13:25:58;;;;;;;11.65;2.22;;;14.80;94.90;;;;;;5045129;28;20029;-71
2022/12/15 13:28:28;;;;;;;4.63;1.20;;;14.80;94.60;;;;;;5032052;28;20041;-72
2022/12/15 13:31:16;;;;;;;8.73;2.67;;;14.80;94.60;;;;;;5031683;28;20370;-71
2022/12/15 13:33:49;;;;;;;4.75;1.00;;;14.70;94.20;;;;;;5038588;28;20030;-72
2022/12/15 13:36:41;;;;;;;10.07;1.92;;;14.70;94.20;;;;;;5042738;28;20418;-70
2022/12/15 13:39:17;;;;;;;8.73;1.50;;;14.70;95.00;;;;;;5033615;28;20051;-70
2022/12/15 13:42:04;;;;;;;5.60;1.10;;;14.70;96.00;;;;;;5042810;28;20017;-70
2022/12/15 13:44:41;;;;;;;8.55;1.58;;;14.60;96.70;;;;;;5033364;28;20118;-70
2022/12/15 13:47:31;;;;;;;3.67;1.13;;;14.40;97.50;;;;;;5041975;28;20063;-72
2022/12/15 13:50:27;;;;;;;8.27;1.15;;;14.30;98.10;;;;;;5041503;28;20049;-72
2022/12/15 13:52:57;;;;;;;10.18;1.67;;;14.20;98.30;;;;;;5030418;28;20061;-71
2022/12/15 13:55:29;;;;;;;10.18;1.45;;;14.10;98.80;;;;;;5034069;28;20538;-71
2022/12/15 13:58:16;;;;;;;6.45;1.10;;;14.10;98.10;;;;;;5030216;28;20149;-71
2022/12/15 14:00:55;;;;;;;9.93;2.38;;;14.10;98.70;;;;;;5041893;28;20494;-71
2022/12/15 14:03:23;;;;;;;6.40;1.90;;;14.10;97.90;;;;;;5043492;28;20027;-69
2022/12/15 14:05:58;;;;;;;7.65;1.48;;;14.10;96.50;;;;;;5038258;28;20108;-72
2022/12/15 14:08:28;;;;;;;6.05;1.02;;;14.20;95.00;;;;;;5032469;28;20068;-71
2022/12/15 14:10:57;;;;;;;8.50;1.15;;;14.30;94.30;;;;;;5041816;28;20070;-71
2022/12/15 14:13:34;;;;;;;8.55;1.40;;;14.30;94.20;;;;;;5031172;28;20151;-71
2022/12/15 14:16:14;;;;;;;5.07;1.35;;;14.30;94.10;;;;;;5034019;28;20034;-72
2022/12/15 14:18:43;;;;;;;7.07;1.05;;;14.30;94.20;;;;;;5033121;28;20117;-71
2022/12/15 14:21:23;;;;;;;8.05;1.10;;;14.30;94.20;;;;;;5034226;28;20486;-71
2022/12/15 14:23:50;;;;;;;5.63;1.50;;;14.30;94.00;;;;;;5042274;28;20040;-70
2022/12/15 14:26:18;;;;;;;6.10;1.60;;;14.30;93.90;;;;;;5039119;28;20061;-71
2022/12/15 14:28:47;;;;;;;12.18;1.50;;;14.30;94.00;;;;;;5040624;28;20154;-71
2022/12/15 14:31:20;;;;;;;8.40;1.40;;;14.30;94.30;;;;;;5033778;28;20040;-70
2022/12/15 14:34:10;;;;;;;7.32;1.35;;;14.30;94.80;;;;;;5044709;28;20036;-71
2022/12/15 14:36:39;;;;;;;6.28;1.33;;;14.20;95.00;;;;;;5021307;28;20017;-71
2022/12/15 14:39:15;;;;;;;8.82;1.58;;;14.20;95.10;;;;;;5038593;28;20025;-72
2022/12/15 14:41:47;;;;;;;7.40;1.13;;;14.20;96.00;;;;;;5046067;28;20136;-64
2022/12/15 14:44:29;;;;;;;10.13;1.67;;;14.20;96.60;;;;;;5039977;28;20801;-72
2022/12/15 14:46:57;;;;;;;9.15;1.40;;;14.10;97.10;;;;;;5050368;28;20033;-72
2022/12/15 14:49:31;;;;;;;5.70;0.90;;;14.00;97.80;;;;;;5047129;28;20044;-72
2022/12/15 14:52:03;;;;;;;6.53;1.17;;;14.00;98.10;;;;;;5033554;28;20028;-71
2022/12/15 14:54:38;;;;;;;7.50;1.58;;;13.90;98.50;;;;;;5044629;28;20029;-72
2022/12/15 14:57:16;;;;;;;9.95;1.45;;;13.80;98.50;;;;;;5035554;28;20029;-71
2022/12/15 14:59:47;;;;;;;3.92;0.77;;;13.90;98.80;;;;;;5040920;28;20017;-72
2022/12/15 15:02:25;;;;;;;8.43;1.05;;;13.80;98.90;;;;;;5034377;28;20418;-72
2022/12/15 15:05:03;;;;;;;6.55;1.95;;;13.80;98.90;;;;;;5039901;28;20030;-72
2022/12/15 15:07:37;;;;;;;9.02;1.20;;;13.70;99.10;;;;;;5033476;28;20024;-72
2022/12/15 15:10:28;;;;;;;5.65;1.13;;;13.70;99.50;;;;;;5045937;28;20072;-73
2022/12/15 15:12:56;;;;;;;6.65;1.00;;;13.60;99.70;;;;;;5044041;28;20029;-70
2022/12/15 15:15:26;;;;;;;5.43;1.10;;;13.70;99.80;;;;;;5038499;28;20031;-70
2022/12/15 15:17:56;;;;;;;3.53;0.93;;;13.70;99.70;;;;;;5037089;28;20030;-70
2022/12/15 15:20:34;;;;;;;10.25;1.58;;;13.70;99.90;;;;;;5039421;28;20416;-70
2022/12/15 15:23:16;;;;;;;4.65;0.85;;;13.70;99.90;;;;;;5039996;28;20025;-70
2022/12/15 15:26:04;;;;;;;3.83;0.88;;;13.70;99.90;;;;;;5038300;28;20046;-66
2022/12/15 15:28:41;;;;;;;5.88;1.27;;;13.70;99.90;;;;;;5031779;28;20041;-70
2022/12/15 15:31:33;;;;;;;4.93;1.13;;;13.70;99.90;;;;;;5038788;28;20482;-72
2022/12/15 15:34:01;;;;;;;9.00;1.65;;;13.60;99.90;;;;;;5036765;28;20873;-71
2022/12/15 15:36:33;;;;;;;6.65;1.63;;;13.60;99.90;;;;;;5038782;28;20058;-70
2022/12/15 15:39:03;;;;;;;8.27;1.50;;;13.70;99.90;;;;;;5034933;28;20106;-72
2022/12/15 15:41:31;;;;;;;6.93;1.20;;;13.60;99.90;;;;;;5041115;28;20016;-72
2022/12/15 15:44:00;;;;;;;7.55;1.00;;;13.60;99.90;;;;;;5039070;28;20044;-71